sensor_id;sensor_type;location;lat;lon;timestamp;pressure;altitude;pressure_sealevel;temperature;humidity
11124;BME280;5616;42.692;23.312;2023-03-23T00:00:54;95108.09;;;7.85;97.29
11124;BME280;5616;42.692;23.312;2023-03-23T00:03:21;95109.22;;;7.83;96.77
11124;BME280;5616;42.692;23.312;2023-03-23T00:05:50;95106.53;;;7.84;96.19
11124;BME280;5616;42.692;23.312;2023-03-23T00:08:18;95110.84;;;7.84;96.76
11124;BME280;5616;42.692;23.312;2023-03-23T00:10:48;95104.09;;;7.83;96.50
11124;BME280;5616;42.692;23.312;2023-03-23T00:13:19;95101.38;;;7.84;96.48
11124;BME280;5616;42.692;23.312;2023-03-23T00:15:47;95100.72;;;7.82;96.50
11124;BME280;5616;42.692;23.312;2023-03-23T00:18:17;95102.97;;;7.85;97.72
11124;BME280;5616;42.692;23.312;2023-03-23T00:20:48;95105.06;;;7.90;98.17
11124;BME280;5616;42.692;23.312;2023-03-23T00:23:16;95101.84;;;7.88;96.83
11124;BME280;5616;42.692;23.312;2023-03-23T00:25:47;95107.97;;;7.79;97.42
11124;BME280;5616;42.692;23.312;2023-03-23T00:28:15;95106.34;;;7.78;97.80
11124;BME280;5616;42.692;23.312;2023-03-23T00:30:45;95113.09;;;7.79;96.95
11124;BME280;5616;42.692;23.312;2023-03-23T00:33:12;95113.75;;;7.81;97.05
11124;BME280;5616;42.692;23.312;2023-03-23T00:35:40;95111.81;;;7.83;96.22
11124;BME280;5616;42.692;23.312;2023-03-23T00:38:09;95118.38;;;7.85;97.19
11124;BME280;5616;42.692;23.312;2023-03-23T00:40:36;95119.06;;;7.79;98.22
11124;BME280;5616;42.692;23.312;2023-03-23T00:43:03;95116.94;;;7.75;98.48
11124;BME280;5616;42.692;23.312;2023-03-23T00:45:30;95122.41;;;7.80;98.29
11124;BME280;5616;42.692;23.312;2023-03-23T00:48:01;95133.50;;;7.80;98.58
11124;BME280;5616;42.692;23.312;2023-03-23T00:50:30;95123.84;;;7.82;98.24
11124;BME280;5616;42.692;23.312;2023-03-23T00:52:57;95127.41;;;7.81;97.36
11124;BME280;5616;42.692;23.312;2023-03-23T00:55:24;95122.09;;;7.83;98.33
11124;BME280;5616;42.692;23.312;2023-03-23T00:57:51;95127.84;;;7.85;98.76
11124;BME280;5616;42.692;23.312;2023-03-23T01:00:19;95128.53;;;7.87;97.98
11124;BME280;5616;42.692;23.312;2023-03-23T01:02:47;95128.34;;;7.80;99.36
11124;BME280;5616;42.692;23.312;2023-03-23T01:05:18;95130.59;;;7.83;99.14
11124;BME280;5616;42.692;23.312;2023-03-23T01:07:45;95142.19;;;7.79;100.00
11124;BME280;5616;42.692;23.312;2023-03-23T01:10:12;95138.81;;;7.71;99.92
11124;BME280;5616;42.692;23.312;2023-03-23T01:12:43;95137.84;;;7.72;100.00
11124;BME280;5616;42.692;23.312;2023-03-23T01:15:14;95146.53;;;7.71;100.00
11124;BME280;5616;42.692;23.312;2023-03-23T01:17:42;95139.63;;;7.63;99.99
11124;BME280;5616;42.692;23.312;2023-03-23T01:20:10;95139.78;;;7.62;100.00
11124;BME280;5616;42.692;23.312;2023-03-23T01:22:39;95131.75;;;7.65;99.89
11124;BME280;5616;42.692;23.312;2023-03-23T01:25:07;95126.78;;;7.63;99.79
11124;BME280;5616;42.692;23.312;2023-03-23T01:27:35;95120.03;;;7.54;100.00
11124;BME280;5616;42.692;23.312;2023-03-23T01:30:02;95120.34;;;7.51;100.00
11124;BME280;5616;42.692;23.312;2023-03-23T01:32:29;95123.41;;;7.47;100.00
11124;BME280;5616;42.692;23.312;2023-03-23T01:34:56;95124.03;;;7.57;100.00
11124;BME280;5616;42.692;23.312;2023-03-23T01:37:23;95119.22;;;7.54;100.00
11124;BME280;5616;42.692;23.312;2023-03-23T01:39:55;95118.09;;;7.56;100.00
11124;BME280;5616;42.692;23.312;2023-03-23T01:42:22;95112.16;;;7.56;100.00
11124;BME280;5616;42.692;23.312;2023-03-23T01:45:21;95113.75;;;7.57;100.00
11124;BME280;5616;42.692;23.312;2023-03-23T01:47:52;95116.31;;;7.49;100.00
11124;BME280;5616;42.692;23.312;2023-03-23T01:50:23;95106.69;;;7.59;100.00
11124;BME280;5616;42.692;23.312;2023-03-23T01:52:53;95107.34;;;7.69;100.00
11124;BME280;5616;42.692;23.312;2023-03-23T01:55:25;95101.84;;;7.72;100.00
11124;BME280;5616;42.692;23.312;2023-03-23T01:57:54;95106.34;;;7.78;100.00
11124;BME280;5616;42.692;23.312;2023-03-23T02:00:22;95097.69;;;7.87;100.00
11124;BME280;5616;42.692;23.312;2023-03-23T02:02:53;95105.84;;;7.90;100.00
11124;BME280;5616;42.692;23.312;2023-03-23T02:05:26;95104.38;;;7.96;100.00
11124;BME280;5616;42.692;23.312;2023-03-23T02:07:58;95102.94;;;8.01;100.00
11124;BME280;5616;42.692;23.312;2023-03-23T02:10:32;95105.34;;;8.03;99.51
11124;BME280;5616;42.692;23.312;2023-03-23T02:13:02;95100.53;;;8.00;100.00
11124;BME280;5616;42.692;23.312;2023-03-23T02:15:46;95104.56;;;8.02;100.00
11124;BME280;5616;42.692;23.312;2023-03-23T02:18:23;95102.00;;;7.94;100.00
11124;BME280;5616;42.692;23.312;2023-03-23T02:24:10;95110.81;;;8.00;99.15
11124;BME280;5616;42.692;23.312;2023-03-23T02:26:51;95106.50;;;7.92;99.79
11124;BME280;5616;42.692;23.312;2023-03-23T02:29:48;95111.81;;;7.67;99.26
11124;BME280;5616;42.692;23.312;2023-03-23T02:32:32;95109.59;;;7.64;100.00
11124;BME280;5616;42.692;23.312;2023-03-23T02:35:08;95105.72;;;7.68;100.00
11124;BME280;5616;42.692;23.312;2023-03-23T02:37:40;95108.63;;;7.65;99.27
11124;BME280;5616;42.692;23.312;2023-03-23T02:40:15;95110.88;;;7.52;98.86
11124;BME280;5616;42.692;23.312;2023-03-23T02:42:47;95107.97;;;7.47;98.17
11124;BME280;5616;42.692;23.312;2023-03-23T02:45:15;95111.81;;;7.51;97.90
11124;BME280;5616;42.692;23.312;2023-03-23T02:47:45;95117.00;;;7.43;98.17
11124;BME280;5616;42.692;23.312;2023-03-23T02:50:17;95122.59;;;7.46;96.74
11124;BME280;5616;42.692;23.312;2023-03-23T02:52:48;95123.09;;;7.50;97.77
11124;BME280;5616;42.692;23.312;2023-03-23T02:57:45;95123.88;;;7.50;97.05
11124;BME280;5616;42.692;23.312;2023-03-23T03:00:16;95139.31;;;7.50;98.20
11124;BME280;5616;42.692;23.312;2023-03-23T03:02:45;95131.91;;;7.47;98.23
11124;BME280;5616;42.692;23.312;2023-03-23T03:05:26;95132.72;;;7.39;98.80
11124;BME280;5616;42.692;23.312;2023-03-23T03:08:07;95133.03;;;7.36;97.63
11124;BME280;5616;42.692;23.312;2023-03-23T03:10:46;95139.59;;;7.31;97.28
11124;BME280;5616;42.692;23.312;2023-03-23T03:13:22;95151.50;;;7.32;98.39
11124;BME280;5616;42.692;23.312;2023-03-23T03:15:54;95159.03;;;7.25;97.68
11124;BME280;5616;42.692;23.312;2023-03-23T03:18:27;95159.97;;;7.24;98.39
11124;BME280;5616;42.692;23.312;2023-03-23T03:21:00;95156.63;;;7.24;99.60
11124;BME280;5616;42.692;23.312;2023-03-23T03:23:32;95161.56;;;7.09;98.84
11124;BME280;5616;42.692;23.312;2023-03-23T03:26:03;95146.34;;;7.16;99.72
11124;BME280;5616;42.692;23.312;2023-03-23T03:28:43;95154.06;;;7.24;98.92
11124;BME280;5616;42.692;23.312;2023-03-23T03:31:15;95157.25;;;7.26;98.67
11124;BME280;5616;42.692;23.312;2023-03-23T03:33:43;95157.28;;;7.34;98.92
11124;BME280;5616;42.692;23.312;2023-03-23T03:36:17;95158.53;;;7.38;98.83
11124;BME280;5616;42.692;23.312;2023-03-23T03:38:48;95166.56;;;7.43;96.69
11124;BME280;5616;42.692;23.312;2023-03-23T03:41:16;95169.63;;;7.38;96.63
11124;BME280;5616;42.692;23.312;2023-03-23T03:43:45;95162.22;;;7.27;96.52
11124;BME280;5616;42.692;23.312;2023-03-23T03:46:12;95163.66;;;7.22;97.79
11124;BME280;5616;42.692;23.312;2023-03-23T03:48:39;95162.84;;;7.05;98.27
11124;BME280;5616;42.692;23.312;2023-03-23T03:51:06;95162.66;;;7.07;98.84
11124;BME280;5616;42.692;23.312;2023-03-23T03:53:37;95162.06;;;7.13;98.25
11124;BME280;5616;42.692;23.312;2023-03-23T03:56:05;95151.25;;;7.01;98.31
11124;BME280;5616;42.692;23.312;2023-03-23T03:58:38;95161.19;;;6.96;98.42
11124;BME280;5616;42.692;23.312;2023-03-23T04:01:20;95154.81;;;7.00;98.00
11124;BME280;5616;42.692;23.312;2023-03-23T04:03:48;95154.78;;;6.92;98.29
11124;BME280;5616;42.692;23.312;2023-03-23T04:06:36;95148.63;;;6.77;98.19
11124;BME280;5616;42.692;23.312;2023-03-23T04:09:05;95150.72;;;6.73;98.85
11124;BME280;5616;42.692;23.312;2023-03-23T04:11:34;95149.91;;;6.73;100.00
11124;BME280;5616;42.692;23.312;2023-03-23T04:14:33;95155.66;;;6.67;100.00
11124;BME280;5616;42.692;23.312;2023-03-23T04:17:00;95152.63;;;6.63;100.00
11124;BME280;5616;42.692;23.312;2023-03-23T04:19:28;95153.09;;;6.67;100.00
11124;BME280;5616;42.692;23.312;2023-03-23T04:21:59;95152.94;;;6.68;99.82
11124;BME280;5616;42.692;23.312;2023-03-23T04:24:28;95162.19;;;6.61;99.90
11124;BME280;5616;42.692;23.312;2023-03-23T04:26:56;95160.47;;;6.70;100.00
11124;BME280;5616;42.692;23.312;2023-03-23T04:29:27;95150.97;;;6.54;100.00
11124;BME280;5616;42.692;23.312;2023-03-23T04:32:26;95157.72;;;6.55;100.00
11124;BME280;5616;42.692;23.312;2023-03-23T04:34:55;95159.19;;;6.66;99.44
11124;BME280;5616;42.692;23.312;2023-03-23T04:37:27;95158.19;;;6.59;99.77
11124;BME280;5616;42.692;23.312;2023-03-23T04:39:57;95159.28;;;6.56;100.00
11124;BME280;5616;42.692;23.312;2023-03-23T04:42:28;95158.88;;;6.69;99.93
11124;BME280;5616;42.692;23.312;2023-03-23T04:45:23;95166.94;;;6.82;99.25
11124;BME280;5616;42.692;23.312;2023-03-23T04:47:52;95168.88;;;6.88;98.82
11124;BME280;5616;42.692;23.312;2023-03-23T04:50:30;95155.22;;;6.79;99.30
11124;BME280;5616;42.692;23.312;2023-03-23T04:53:04;95174.66;;;6.82;99.30
11124;BME280;5616;42.692;23.312;2023-03-23T04:55:34;95161.00;;;6.82;98.96
11124;BME280;5616;42.692;23.312;2023-03-23T04:58:03;95168.88;;;6.88;98.80
11124;BME280;5616;42.692;23.312;2023-03-23T05:00:43;95175.47;;;6.99;98.23
11124;BME280;5616;42.692;23.312;2023-03-23T05:03:15;95176.47;;;6.98;98.19
11124;BME280;5616;42.692;23.312;2023-03-23T05:05:44;95174.88;;;7.05;98.99
11124;BME280;5616;42.692;23.312;2023-03-23T05:08:13;95181.16;;;7.18;97.53
11124;BME280;5616;42.692;23.312;2023-03-23T05:10:49;95187.75;;;7.29;98.27
11124;BME280;5616;42.692;23.312;2023-03-23T05:13:19;95186.13;;;7.20;97.76
11124;BME280;5616;42.692;23.312;2023-03-23T05:15:50;95185.81;;;7.23;97.84
11124;BME280;5616;42.692;23.312;2023-03-23T05:18:17;95186.97;;;7.28;97.44
11124;BME280;5616;42.692;23.312;2023-03-23T05:20:45;95194.03;;;7.26;96.77
11124;BME280;5616;42.692;23.312;2023-03-23T05:23:17;95187.28;;;7.25;97.30
11124;BME280;5616;42.692;23.312;2023-03-23T05:25:53;95197.25;;;7.36;96.81
11124;BME280;5616;42.692;23.312;2023-03-23T05:28:20;95201.28;;;7.47;96.19
11124;BME280;5616;42.692;23.312;2023-03-23T05:30:53;95197.41;;;7.43;95.29
11124;BME280;5616;42.692;23.312;2023-03-23T05:33:22;95200.97;;;7.50;96.22
11124;BME280;5616;42.692;23.312;2023-03-23T05:36:01;95204.66;;;7.56;96.01
11124;BME280;5616;42.692;23.312;2023-03-23T05:38:35;95202.88;;;7.48;95.53
11124;BME280;5616;42.692;23.312;2023-03-23T05:41:06;95209.47;;;7.67;96.17
11124;BME280;5616;42.692;23.312;2023-03-23T05:43:39;95213.84;;;7.74;95.45
11124;BME280;5616;42.692;23.312;2023-03-23T05:46:32;95208.50;;;7.60;94.93
11124;BME280;5616;42.692;23.312;2023-03-23T05:49:01;95209.63;;;7.57;95.75
11124;BME280;5616;42.692;23.312;2023-03-23T05:51:36;95218.00;;;7.67;95.42
11124;BME280;5616;42.692;23.312;2023-03-23T05:54:03;95217.81;;;7.85;95.60
11124;BME280;5616;42.692;23.312;2023-03-23T05:56:32;95218.31;;;7.80;94.85
11124;BME280;5616;42.692;23.312;2023-03-23T05:59:13;95219.28;;;7.63;94.81
11124;BME280;5616;42.692;23.312;2023-03-23T06:01:43;95218.47;;;7.71;94.66
11124;BME280;5616;42.692;23.312;2023-03-23T06:04:10;95216.06;;;7.93;94.56
11124;BME280;5616;42.692;23.312;2023-03-23T06:06:43;95229.88;;;8.09;92.70
11124;BME280;5616;42.692;23.312;2023-03-23T06:09:11;95235.19;;;8.23;90.80
11124;BME280;5616;42.692;23.312;2023-03-23T06:11:57;95229.44;;;8.29;89.80
11124;BME280;5616;42.692;23.312;2023-03-23T06:14:36;95235.53;;;8.36;89.91
11124;BME280;5616;42.692;23.312;2023-03-23T06:17:03;95232.78;;;8.38;90.42
11124;BME280;5616;42.692;23.312;2023-03-23T06:19:30;95233.75;;;8.45;90.36
11124;BME280;5616;42.692;23.312;2023-03-23T06:22:04;95228.44;;;8.22;90.04
11124;BME280;5616;42.692;23.312;2023-03-23T06:25:10;95231.97;;;8.21;91.85
11124;BME280;5616;42.692;23.312;2023-03-23T06:27:42;95229.25;;;8.39;90.41
11124;BME280;5616;42.692;23.312;2023-03-23T06:30:10;95224.22;;;8.53;89.34
11124;BME280;5616;42.692;23.312;2023-03-23T06:32:37;95233.50;;;8.71;88.62
11124;BME280;5616;42.692;23.312;2023-03-23T06:35:09;95232.16;;;8.91;88.21
11124;BME280;5616;42.692;23.312;2023-03-23T06:37:48;95230.31;;;9.07;87.53
11124;BME280;5616;42.692;23.312;2023-03-23T06:40:22;95231.25;;;9.14;87.18
11124;BME280;5616;42.692;23.312;2023-03-23T06:42:54;95229.94;;;9.27;86.79
11124;BME280;5616;42.692;23.312;2023-03-23T06:45:43;95234.56;;;9.31;86.95
11124;BME280;5616;42.692;23.312;2023-03-23T06:48:33;95232.66;;;9.25;87.87
11124;BME280;5616;42.692;23.312;2023-03-23T06:51:00;95240.09;;;9.20;87.79
11124;BME280;5616;42.692;23.312;2023-03-23T06:53:29;95240.34;;;9.33;87.67
11124;BME280;5616;42.692;23.312;2023-03-23T06:55:57;95245.41;;;9.49;87.46
11124;BME280;5616;42.692;23.312;2023-03-23T06:58:25;95241.31;;;9.63;87.34
11124;BME280;5616;42.692;23.312;2023-03-23T07:00:56;95243.59;;;9.80;86.41
11124;BME280;5616;42.692;23.312;2023-03-23T07:03:29;95246.31;;;9.87;85.90
11124;BME280;5616;42.692;23.312;2023-03-23T07:05:57;95243.16;;;10.00;85.16
11124;BME280;5616;42.692;23.312;2023-03-23T07:08:27;95240.22;;;10.03;84.37
11124;BME280;5616;42.692;23.312;2023-03-23T07:10:55;95242.59;;;10.12;83.73
11124;BME280;5616;42.692;23.312;2023-03-23T07:13:27;95248.06;;;10.32;83.03
11124;BME280;5616;42.692;23.312;2023-03-23T07:15:58;95240.97;;;10.49;82.67
11124;BME280;5616;42.692;23.312;2023-03-23T07:18:26;95239.03;;;10.65;82.92
11124;BME280;5616;42.692;23.312;2023-03-23T07:20:56;95243.16;;;10.74;82.19
11124;BME280;5616;42.692;23.312;2023-03-23T07:23:29;95232.38;;;10.71;82.72
11124;BME280;5616;42.692;23.312;2023-03-23T07:26:03;95243.41;;;10.79;82.12
11124;BME280;5616;42.692;23.312;2023-03-23T07:28:38;95245.28;;;10.56;82.33
11124;BME280;5616;42.692;23.312;2023-03-23T07:31:17;95240.19;;;10.63;81.79
11124;BME280;5616;42.692;23.312;2023-03-23T07:33:44;95240.50;;;10.82;81.89
11124;BME280;5616;42.692;23.312;2023-03-23T07:36:11;95241.59;;;11.09;80.22
11124;BME280;5616;42.692;23.312;2023-03-23T07:38:37;95239.84;;;11.24;79.57
11124;BME280;5616;42.692;23.312;2023-03-23T07:41:05;95246.94;;;11.22;79.61
11124;BME280;5616;42.692;23.312;2023-03-23T07:43:32;95252.00;;;11.45;80.06
11124;BME280;5616;42.692;23.312;2023-03-23T07:46:23;95246.78;;;11.74;79.41
11124;BME280;5616;42.692;23.312;2023-03-23T07:49:02;95260.09;;;11.92;77.29
11124;BME280;5616;42.692;23.312;2023-03-23T07:51:36;95256.47;;;12.08;75.15
11124;BME280;5616;42.692;23.312;2023-03-23T07:54:04;95250.47;;;12.07;75.78
11124;BME280;5616;42.692;23.312;2023-03-23T07:56:53;95239.03;;;11.74;76.82
11124;BME280;5616;42.692;23.312;2023-03-23T07:59:23;95247.16;;;11.92;77.43
11124;BME280;5616;42.692;23.312;2023-03-23T08:01:51;95253.19;;;12.20;77.15
11124;BME280;5616;42.692;23.312;2023-03-23T08:04:36;95259.75;;;12.44;74.42
11124;BME280;5616;42.692;23.312;2023-03-23T08:07:14;95259.16;;;12.70;73.26
11124;BME280;5616;42.692;23.312;2023-03-23T08:10:02;95258.84;;;12.86;72.36
11124;BME280;5616;42.692;23.312;2023-03-23T08:12:55;95259.84;;;13.13;72.74
11124;BME280;5616;42.692;23.312;2023-03-23T08:15:45;95257.97;;;13.34;70.05
11124;BME280;5616;42.692;23.312;2023-03-23T08:18:51;95255.41;;;13.07;70.12
11124;BME280;5616;42.692;23.312;2023-03-23T08:21:38;95258.69;;;13.22;69.66
11124;BME280;5616;42.692;23.312;2023-03-23T08:24:28;95257.84;;;13.56;68.60
11124;BME280;5616;42.692;23.312;2023-03-23T08:27:02;95252.31;;;13.72;67.96
11124;BME280;5616;42.692;23.312;2023-03-23T08:29:35;95257.31;;;13.80;66.52
11124;BME280;5616;42.692;23.312;2023-03-23T08:32:20;95254.91;;;13.72;66.66
11124;BME280;5616;42.692;23.312;2023-03-23T08:35:02;95255.38;;;14.08;67.07
11124;BME280;5616;42.692;23.312;2023-03-23T08:37:52;95261.44;;;14.48;66.41
11124;BME280;5616;42.692;23.312;2023-03-23T08:40:51;95249.63;;;14.39;62.89
11124;BME280;5616;42.692;23.312;2023-03-23T08:43:35;95250.81;;;14.69;64.49
11124;BME280;5616;42.692;23.312;2023-03-23T08:46:41;95248.56;;;15.05;62.66
11124;BME280;5616;42.692;23.312;2023-03-23T08:49:11;95244.53;;;15.16;55.39
11124;BME280;5616;42.692;23.312;2023-03-23T08:52:08;95243.28;;;15.38;56.06
11124;BME280;5616;42.692;23.312;2023-03-23T08:55:08;95238.75;;;15.71;57.08
11124;BME280;5616;42.692;23.312;2023-03-23T08:57:48;95240.56;;;16.02;56.47
11124;BME280;5616;42.692;23.312;2023-03-23T09:00:49;95242.19;;;15.97;52.59
11124;BME280;5616;42.692;23.312;2023-03-23T09:03:35;95241.06;;;15.86;52.78
11124;BME280;5616;42.692;23.312;2023-03-23T09:06:20;95246.00;;;15.94;54.03
11124;BME280;5616;42.692;23.312;2023-03-23T09:08:49;95240.53;;;16.33;54.57
11124;BME280;5616;42.692;23.312;2023-03-23T09:11:16;95233.53;;;16.34;54.00
11124;BME280;5616;42.692;23.312;2023-03-23T09:13:43;95235.78;;;16.55;51.05
11124;BME280;5616;42.692;23.312;2023-03-23T09:16:10;95240.72;;;16.07;53.73
11124;BME280;5616;42.692;23.312;2023-03-23T09:18:36;95245.22;;;16.49;51.06
11124;BME280;5616;42.692;23.312;2023-03-23T09:21:04;95230.88;;;16.65;51.90
11124;BME280;5616;42.692;23.312;2023-03-23T09:23:32;95239.13;;;17.05;49.08
11124;BME280;5616;42.692;23.312;2023-03-23T09:26:02;95233.84;;;17.30;49.13
11124;BME280;5616;42.692;23.312;2023-03-23T09:28:29;95221.97;;;16.97;50.00
11124;BME280;5616;42.692;23.312;2023-03-23T09:30:56;95227.69;;;17.24;50.03
11124;BME280;5616;42.692;23.312;2023-03-23T09:33:24;95228.41;;;17.31;49.03
11124;BME280;5616;42.692;23.312;2023-03-23T09:35:51;95230.09;;;16.65;49.69
11124;BME280;5616;42.692;23.312;2023-03-23T09:38:18;95225.38;;;16.55;52.95
11124;BME280;5616;42.692;23.312;2023-03-23T09:40:47;95224.31;;;16.81;51.55
11124;BME280;5616;42.692;23.312;2023-03-23T09:43:43;95217.34;;;16.57;48.92
11124;BME280;5616;42.692;23.312;2023-03-23T09:46:26;95212.16;;;16.50;49.42
11124;BME280;5616;42.692;23.312;2023-03-23T09:48:58;95211.38;;;16.92;51.00
11124;BME280;5616;42.692;23.312;2023-03-23T09:51:39;95223.03;;;16.72;49.80
11124;BME280;5616;42.692;23.312;2023-03-23T09:54:13;95214.78;;;16.75;49.13
11124;BME280;5616;42.692;23.312;2023-03-23T09:56:40;95211.66;;;16.84;50.17
11124;BME280;5616;42.692;23.312;2023-03-23T09:59:16;95213.84;;;17.05;48.70
11124;BME280;5616;42.692;23.312;2023-03-23T10:01:46;95207.97;;;16.92;49.02
11124;BME280;5616;42.692;23.312;2023-03-23T10:04:23;95211.28;;;16.81;50.05
11124;BME280;5616;42.692;23.312;2023-03-23T10:06:52;95210.34;;;16.75;48.62
11124;BME280;5616;42.692;23.312;2023-03-23T10:09:19;95210.91;;;16.28;50.49
11124;BME280;5616;42.692;23.312;2023-03-23T10:11:57;95206.53;;;16.53;49.29
11124;BME280;5616;42.692;23.312;2023-03-23T10:14:45;95201.94;;;16.24;51.45
11124;BME280;5616;42.692;23.312;2023-03-23T10:17:21;95206.59;;;16.15;50.59
11124;BME280;5616;42.692;23.312;2023-03-23T10:19:54;95198.84;;;16.09;50.89
11124;BME280;5616;42.692;23.312;2023-03-23T10:22:32;95202.72;;;16.00;51.03
11124;BME280;5616;42.692;23.312;2023-03-23T10:25:06;95205.13;;;16.50;49.71
11124;BME280;5616;42.692;23.312;2023-03-23T10:27:42;95196.84;;;16.60;51.34
11124;BME280;5616;42.692;23.312;2023-03-23T10:30:15;95196.56;;;16.68;49.87
11124;BME280;5616;42.692;23.312;2023-03-23T10:32:48;95207.28;;;16.78;48.02
11124;BME280;5616;42.692;23.312;2023-03-23T10:35:19;95199.88;;;16.57;49.25
11124;BME280;5616;42.692;23.312;2023-03-23T10:37:52;95192.06;;;16.57;49.01
11124;BME280;5616;42.692;23.312;2023-03-23T10:40:22;95187.03;;;16.31;51.92
11124;BME280;5616;42.692;23.312;2023-03-23T10:42:50;95190.13;;;16.46;49.19
11124;BME280;5616;42.692;23.312;2023-03-23T10:45:23;95193.81;;;16.63;50.21
11124;BME280;5616;42.692;23.312;2023-03-23T10:47:56;95191.72;;;16.72;48.50
11124;BME280;5616;42.692;23.312;2023-03-23T10:50:26;95194.38;;;16.65;50.03
11124;BME280;5616;42.692;23.312;2023-03-23T10:52:57;95191.94;;;16.45;49.93
11124;BME280;5616;42.692;23.312;2023-03-23T10:55:36;95195.63;;;16.38;49.47
11124;BME280;5616;42.692;23.312;2023-03-23T10:58:05;95183.47;;;16.25;48.32
11124;BME280;5616;42.692;23.312;2023-03-23T11:00:40;95186.03;;;16.07;49.55
11124;BME280;5616;42.692;23.312;2023-03-23T11:03:27;95186.16;;;16.43;49.69
11124;BME280;5616;42.692;23.312;2023-03-23T11:06:00;95183.09;;;16.46;49.30
11124;BME280;5616;42.692;23.312;2023-03-23T11:08:30;95181.81;;;16.80;48.32
11124;BME280;5616;42.692;23.312;2023-03-23T11:11:09;95180.72;;;16.45;49.49
11124;BME280;5616;42.692;23.312;2023-03-23T11:13:39;95178.84;;;16.52;48.82
11124;BME280;5616;42.692;23.312;2023-03-23T11:16:10;95168.47;;;16.21;49.29
11124;BME280;5616;42.692;23.312;2023-03-23T11:18:48;95169.22;;;16.28;49.33
11124;BME280;5616;42.692;23.312;2023-03-23T11:21:15;95164.06;;;16.21;49.68
11124;BME280;5616;42.692;23.312;2023-03-23T11:23:43;95161.09;;;16.18;50.19
11124;BME280;5616;42.692;23.312;2023-03-23T11:26:14;95148.56;;;16.33;49.75
11124;BME280;5616;42.692;23.312;2023-03-23T11:28:45;95150.75;;;16.11;49.80
11124;BME280;5616;42.692;23.312;2023-03-23T11:31:13;95155.34;;;15.84;50.25
11124;BME280;5616;42.692;23.312;2023-03-23T11:33:50;95154.75;;;16.07;49.66
11124;BME280;5616;42.692;23.312;2023-03-23T11:36:18;95147.28;;;15.93;49.39
11124;BME280;5616;42.692;23.312;2023-03-23T11:38:46;95146.44;;;15.99;51.22
11124;BME280;5616;42.692;23.312;2023-03-23T11:41:18;95146.69;;;16.15;49.32
11124;BME280;5616;42.692;23.312;2023-03-23T11:43:46;95144.84;;;16.22;50.13
11124;BME280;5616;42.692;23.312;2023-03-23T11:46:24;95134.75;;;16.50;50.91
11124;BME280;5616;42.692;23.312;2023-03-23T11:48:57;95143.50;;;16.13;50.25
11124;BME280;5616;42.692;23.312;2023-03-23T11:51:30;95131.31;;;16.32;51.42
11124;BME280;5616;42.692;23.312;2023-03-23T11:54:09;95133.34;;;16.30;50.86
11124;BME280;5616;42.692;23.312;2023-03-23T11:56:39;95133.66;;;16.40;50.54
11124;BME280;5616;42.692;23.312;2023-03-23T11:59:11;95136.59;;;16.68;49.32
11124;BME280;5616;42.692;23.312;2023-03-23T12:01:55;95122.56;;;16.87;48.30
11124;BME280;5616;42.692;23.312;2023-03-23T12:04:33;95120.94;;;16.86;47.75
11124;BME280;5616;42.692;23.312;2023-03-23T12:07:21;95123.41;;;16.81;49.01
11124;BME280;5616;42.692;23.312;2023-03-23T12:10:00;95116.97;;;16.84;48.88
11124;BME280;5616;42.692;23.312;2023-03-23T12:12:35;95117.47;;;16.92;48.20
11124;BME280;5616;42.692;23.312;2023-03-23T12:15:13;95117.25;;;16.76;49.20
11124;BME280;5616;42.692;23.312;2023-03-23T12:17:52;95123.28;;;16.51;49.14
11124;BME280;5616;42.692;23.312;2023-03-23T12:20:29;95121.00;;;16.43;48.14
11124;BME280;5616;42.692;23.312;2023-03-23T12:23:21;95114.59;;;16.64;48.63
11124;BME280;5616;42.692;23.312;2023-03-23T12:25:58;95112.13;;;16.87;49.18
11124;BME280;5616;42.692;23.312;2023-03-23T12:28:36;95108.19;;;16.96;47.62
11124;BME280;5616;42.692;23.312;2023-03-23T12:31:11;95109.81;;;16.61;49.32
11124;BME280;5616;42.692;23.312;2023-03-23T12:33:52;95105.09;;;16.88;50.34
11124;BME280;5616;42.692;23.312;2023-03-23T12:36:34;95098.94;;;16.82;49.12
11124;BME280;5616;42.692;23.312;2023-03-23T12:39:37;95077.66;;;16.67;48.61
11124;BME280;5616;42.692;23.312;2023-03-23T12:42:16;95099.72;;;17.01;49.20
11124;BME280;5616;42.692;23.312;2023-03-23T12:44:47;95098.91;;;17.00;47.78
11124;BME280;5616;42.692;23.312;2023-03-23T12:47:29;95096.22;;;17.07;49.97
11124;BME280;5616;42.692;23.312;2023-03-23T12:50:03;95087.16;;;17.09;47.22
11124;BME280;5616;42.692;23.312;2023-03-23T12:52:38;95096.28;;;17.19;47.21
11124;BME280;5616;42.692;23.312;2023-03-23T12:55:15;95092.44;;;17.21;46.50
11124;BME280;5616;42.692;23.312;2023-03-23T12:57:49;95085.31;;;17.28;46.19
11124;BME280;5616;42.692;23.312;2023-03-23T13:00:21;95088.03;;;17.33;45.54
11124;BME280;5616;42.692;23.312;2023-03-23T13:02:54;95080.88;;;17.29;46.46
11124;BME280;5616;42.692;23.312;2023-03-23T13:05:33;95080.56;;;17.37;46.20
11124;BME280;5616;42.692;23.312;2023-03-23T13:08:07;95083.41;;;17.35;47.46
11124;BME280;5616;42.692;23.312;2023-03-23T13:10:39;95084.91;;;17.43;46.41
11124;BME280;5616;42.692;23.312;2023-03-23T13:13:14;95080.44;;;17.32;46.80
11124;BME280;5616;42.692;23.312;2023-03-23T13:15:51;95083.31;;;17.42;46.80
11124;BME280;5616;42.692;23.312;2023-03-23T13:18:29;95067.53;;;17.37;47.67
11124;BME280;5616;42.692;23.312;2023-03-23T13:21:10;95071.00;;;17.31;46.47
11124;BME280;5616;42.692;23.312;2023-03-23T13:23:42;95071.06;;;17.12;47.56
11124;BME280;5616;42.692;23.312;2023-03-23T13:26:12;95076.00;;;17.02;47.80
11124;BME280;5616;42.692;23.312;2023-03-23T13:28:49;95061.22;;;17.15;47.80
11124;BME280;5616;42.692;23.312;2023-03-23T13:31:21;95058.69;;;17.38;46.19
11124;BME280;5616;42.692;23.312;2023-03-23T13:33:52;95063.66;;;17.28;47.48
11124;BME280;5616;42.692;23.312;2023-03-23T13:36:28;95071.19;;;17.18;46.62
11124;BME280;5616;42.692;23.312;2023-03-23T13:38:56;95064.53;;;17.22;47.04
11124;BME280;5616;42.692;23.312;2023-03-23T13:41:25;95057.88;;;17.07;47.79
11124;BME280;5616;42.692;23.312;2023-03-23T13:43:54;95064.78;;;17.32;48.04
11124;BME280;5616;42.692;23.312;2023-03-23T13:46:31;95068.19;;;17.32;46.27